TimeMDT,TemperatureF,Dew PointF,Humidity,Sea Level PressureIn,VisibilityMPH,Wind Direction,Wind SpeedMPH,Gust SpeedMPH,PrecipitationIn,Events,Conditions,WindDirDegrees,DateUTC
12:53 AM,52.0,50.0,93,29.46,3.0,NW,3.5,-,0.14,Rain,Rain,320,2013-09-23 06:53:00
1:10 AM,51.8,51.8,100,29.63,4.0,WNW,6.9,-,0.02,Rain,Rain,300,2013-09-23 07:10:00
1:53 AM,50.0,48.0,93,29.44,4.0,WNW,15.0,-,0.13,Rain,Rain,290,2013-09-23 07:53:00
2:53 AM,48.0,46.9,96,29.44,3.0,West,16.1,-,0.27,Rain,Heavy Rain,270,2013-09-23 08:53:00
2:58 AM,46.4,46.4,100,29.61,1.8,WNW,16.1,-,0.05,Rain,Heavy Rain,290,2013-09-23 08:58:00
3:16 AM,46.4,46.4,100,29.61,3.0,WNW,19.6,27.6,0.15,Rain,Rain,290,2013-09-23 09:16:00
3:53 AM,46.9,46.9,100,29.47,3.0,NNW,15.0,28.8,0.28,Rain,Heavy Rain,330,2013-09-23 09:53:00
4:53 AM,46.9,46.9,100,29.49,3.0,North,13.8,-,0.11,Rain,Light Rain,10,2013-09-23 10:53:00
5:53 AM,46.9,46.9,100,29.56,8.0,NNW,8.1,-,0.05,Rain,Light Rain,340,2013-09-23 11:53:00
6:06 AM,46.4,46.4,100,29.67,10.0,WNW,4.6,-,0.01,Rain,Light Rain,290,2013-09-23 12:06:00
6:53 AM,48.0,48.0,100,29.60,10.0,West,4.6,-,0.01,Rain,Light Rain,280,2013-09-23 12:53:00
7:53 AM,48.9,48.9,100,29.60,10.0,West,5.8,-,0.00,,Mostly Cloudy,270,2013-09-23 13:53:00
8:53 AM,54.0,43.0,66,29.61,10.0,NW,15.0,20.7,N/A,,Mostly Cloudy,320,2013-09-23 14:53:00
9:53 AM,57.0,36.0,45,29.63,10.0,NW,23.0,28.8,N/A,,Mostly Cloudy,310,2013-09-23 15:53:00
10:53 AM,60.1,36.0,41,29.65,10.0,NW,20.7,32.2,N/A,,Mostly Cloudy,310,2013-09-23 16:53:00
11:53 AM,60.1,34.0,38,29.72,10.0,NNW,19.6,31.1,N/A,,Scattered Clouds,330,2013-09-23 17:53:00
12:53 PM,61.0,33.1,35,29.74,10.0,WNW,20.7,27.6,N/A,,Scattered Clouds,300,2013-09-23 18:53:00
1:53 PM,62.1,30.9,31,29.77,10.0,NNW,17.3,24.2,N/A,,Scattered Clouds,340,2013-09-23 19:53:00
2:53 PM,63.0,33.1,33,29.81,10.0,NW,21.9,27.6,N/A,,Scattered Clouds,320,2013-09-23 20:53:00
3:53 PM,63.0,32.0,31,29.85,10.0,NNW,21.9,29.9,N/A,,Scattered Clouds,330,2013-09-23 21:53:00
4:53 PM,62.1,30.9,31,29.88,10.0,NNW,20.7,28.8,N/A,,Scattered Clouds,340,2013-09-23 22:53:00
5:53 PM,60.1,30.9,33,29.91,10.0,NNW,17.3,-,N/A,,Partly Cloudy,330,2013-09-23 23:53:00
6:53 PM,57.9,32.0,37,29.94,10.0,NW,10.4,-,N/A,,Partly Cloudy,310,2013-09-24 00:53:00
7:53 PM,55.4,30.2,38,29.96,10.0,West,9.2,-,N/A,,Partly Cloudy,280,2013-09-24 01:53:00
8:53 PM,55.0,30.0,38,29.93,10.0,WNW,8.1,-,N/A,,Partly Cloudy,300,2013-09-24 02:53:00
9:53 PM,53.1,30.0,41,29.93,10.0,WNW,6.9,-,N/A,,Partly Cloudy,300,2013-09-24 03:53:00
10:53 PM,48.0,33.1,56,29.95,10.0,WSW,5.8,-,N/A,,Clear,240,2013-09-24 04:53:00
11:53 PM,46.0,34.0,63,-9999,10.0,SW,8.1,-,N/A,,Clear,220,2013-09-24 05:53:00